createdAt,value
2018-03-07T00:00:03.256Z,3.37
2018-03-07T00:02:34.104Z,3.35
2018-03-07T00:05:05.431Z,3.35
2018-03-07T00:07:36.413Z,3.33
2018-03-07T00:10:07.825Z,3.37
2018-03-07T00:12:37.738Z,3.32
2018-03-07T00:15:09.075Z,3.22
2018-03-07T00:17:38.750Z,3.26
2018-03-07T00:20:09.356Z,3.22
2018-03-07T00:22:40.241Z,3.18
2018-03-07T00:25:11.186Z,3.23
2018-03-07T00:27:42.144Z,3.21
2018-03-07T00:30:13.459Z,3.15
2018-03-07T00:32:44.145Z,3.16
2018-03-07T00:35:15.108Z,3.18
2018-03-07T00:37:47.616Z,3.19
2018-03-07T00:40:18.211Z,3.23
2018-03-07T00:42:48.717Z,3.25
2018-03-07T00:45:19.294Z,3.21
2018-03-07T00:47:50.239Z,3.24
2018-03-07T00:50:20.788Z,3.25
2018-03-07T00:52:52.844Z,3.26
2018-03-07T00:55:22.729Z,3.26
2018-03-07T00:57:53.340Z,3.28
2018-03-07T01:00:23.990Z,3.32
2018-03-07T01:02:55.392Z,3.30
2018-03-07T01:05:25.703Z,3.31
2018-03-07T01:07:56.508Z,3.36
2018-03-07T01:10:27.089Z,3.35
2018-03-07T01:12:58.524Z,3.33
2018-03-07T01:15:29.176Z,3.31
2018-03-07T01:18:00.248Z,3.36
2018-03-07T01:20:31.084Z,3.41
2018-03-07T01:23:02.425Z,3.43
2018-03-07T01:25:33.168Z,3.49
2018-03-07T01:28:04.076Z,3.50
2018-03-07T01:30:35.294Z,3.51
2018-03-07T01:33:05.923Z,3.61
2018-03-07T01:35:36.317Z,3.58
2018-03-07T01:38:07.925Z,3.66
2018-03-07T01:40:38.379Z,3.71
2018-03-07T01:43:09.166Z,3.78
2018-03-07T01:45:44.144Z,3.74
2018-03-07T01:48:13.502Z,3.74
2018-03-07T01:50:42.750Z,3.74
2018-03-07T01:53:13.660Z,3.74
2018-03-07T01:55:44.295Z,3.74
2018-03-07T01:58:15.111Z,3.75
2018-03-07T02:00:46.181Z,3.83
2018-03-07T02:03:16.816Z,3.83
2018-03-07T02:05:47.456Z,3.79
2018-03-07T02:08:18.334Z,3.79
2018-03-07T02:10:49.192Z,3.83
2018-03-07T02:13:20.201Z,3.80
2018-03-07T02:15:51.005Z,3.83
2018-03-07T02:18:23.559Z,3.84
2018-03-07T02:20:54.245Z,3.82
2018-03-07T02:23:25.160Z,3.82
2018-03-07T02:25:55.724Z,3.75
2018-03-07T02:28:26.443Z,3.76
2018-03-07T02:30:57.088Z,3.73
2018-03-07T02:33:27.752Z,3.75
2018-03-07T02:35:59.409Z,3.67
2018-03-07T02:38:30.259Z,3.72
2018-03-07T02:41:01.965Z,3.77
2018-03-07T02:43:32.846Z,3.79
2018-03-07T02:46:03.355Z,3.82
2018-03-07T02:48:34.046Z,3.83
2018-03-07T02:51:05.378Z,3.80
2018-03-07T02:53:36.108Z,3.76
2018-03-07T02:56:07.363Z,3.78
2018-03-07T02:58:38.112Z,3.74
2018-03-07T03:01:09.465Z,3.85
2018-03-07T03:03:40.160Z,3.84
2018-03-07T03:06:11.563Z,3.76
2018-03-07T03:08:42.421Z,3.69
2018-03-07T03:11:13.122Z,3.74
2018-03-07T03:13:44.632Z,3.76
2018-03-07T03:16:14.890Z,3.74
2018-03-07T03:18:45.618Z,3.73
2018-03-07T03:21:16.267Z,3.74
2018-03-07T03:23:46.987Z,3.78
2018-03-07T03:26:17.494Z,3.81
2018-03-07T03:28:48.778Z,3.77
2018-03-07T03:31:20.185Z,3.75
2018-03-07T03:33:50.863Z,3.78
2018-03-07T03:36:20.808Z,3.77
2018-03-07T03:38:51.550Z,3.77
2018-03-07T03:41:22.182Z,3.79
2018-03-07T03:43:53.124Z,3.81
2018-03-07T03:46:24.048Z,3.83
2018-03-07T03:48:54.753Z,3.81
2018-03-07T03:51:25.334Z,3.86
2018-03-07T03:53:56.149Z,3.85
2018-03-07T03:56:26.605Z,3.92
2018-03-07T03:58:57.286Z,3.90
2018-03-07T04:01:28.053Z,3.88
2018-03-07T04:04:00.892Z,3.88
2018-03-07T04:06:30.732Z,3.89
2018-03-07T04:09:01.531Z,3.89
2018-03-07T04:11:32.085Z,3.90
2018-03-07T04:14:02.482Z,3.91
2018-03-07T04:16:33.089Z,3.89
2018-03-07T04:19:04.464Z,3.89
2018-03-07T04:21:35.010Z,3.86
2018-03-07T04:24:06.570Z,3.86
2018-03-07T04:26:37.134Z,3.85
2018-03-07T04:29:08.197Z,3.87
2018-03-07T04:31:38.830Z,3.88
2018-03-07T04:34:09.396Z,3.91
2018-03-07T04:36:40.043Z,3.93
2018-03-07T04:39:11.470Z,3.93
2018-03-07T04:41:42.079Z,3.92
2018-03-07T04:44:12.626Z,3.92
2018-03-07T04:46:43.145Z,3.90
2018-03-07T04:49:14.064Z,3.91
2018-03-07T04:51:45.452Z,3.92
2018-03-07T04:54:16.135Z,3.95
2018-03-07T04:56:47.102Z,3.95
2018-03-07T04:59:18.962Z,3.92
2018-03-07T05:01:49.293Z,3.92
2018-03-07T05:04:19.727Z,3.93
2018-03-07T05:06:50.324Z,3.93
2018-03-07T05:09:21.321Z,3.93
2018-03-07T05:11:52.741Z,3.92
2018-03-07T05:14:23.443Z,3.91
2018-03-07T05:16:54.199Z,3.90
2018-03-07T05:19:25.297Z,3.87
2018-03-07T05:21:56.216Z,3.87
2018-03-07T05:24:27.883Z,3.85
2018-03-07T05:26:58.886Z,3.76
2018-03-07T05:29:28.719Z,3.81
2018-03-07T05:31:59.349Z,3.79
2018-03-07T05:34:30.794Z,3.81
2018-03-07T05:37:01.395Z,3.76
2018-03-07T05:39:33.157Z,3.76
2018-03-07T05:42:03.820Z,3.74
2018-03-07T05:44:34.420Z,3.71
2018-03-07T05:47:05.108Z,3.75
2018-03-07T05:49:36.521Z,3.77
2018-03-07T05:52:06.397Z,3.74
2018-03-07T05:54:38.092Z,3.72
2018-03-07T05:57:08.610Z,3.74
2018-03-07T05:59:39.227Z,3.91
2018-03-07T06:02:09.687Z,3.83
2018-03-07T06:04:40.541Z,3.74
2018-03-07T06:07:12.101Z,3.81
2018-03-07T06:09:42.927Z,3.83
2018-03-07T06:12:13.331Z,3.81
2018-03-07T06:14:44.621Z,3.79
2018-03-07T06:17:15.235Z,3.66
2018-03-07T06:19:46.110Z,3.78
2018-03-07T06:22:17.088Z,3.81
2018-03-07T06:24:48.181Z,3.83
2018-03-07T06:27:18.782Z,3.87
2018-03-07T06:29:49.504Z,3.81
2018-03-07T06:32:20.259Z,3.74
2018-03-07T06:34:51.205Z,3.66
2018-03-07T06:37:21.079Z,3.70
2018-03-07T06:39:52.639Z,3.67
2018-03-07T06:42:22.881Z,3.66
2018-03-07T06:44:55.499Z,3.61
2018-03-07T06:47:26.888Z,3.64
2018-03-07T06:49:56.708Z,3.66
2018-03-07T06:52:27.337Z,3.71
2018-03-07T06:54:58.164Z,3.72
2018-03-07T06:57:29.339Z,3.75
2018-03-07T07:00:01.120Z,3.78
2018-03-07T07:02:31.733Z,3.78
2018-03-07T07:05:01.670Z,3.77
2018-03-07T07:07:33.306Z,3.82
2018-03-07T07:10:03.844Z,3.85
2018-03-07T07:12:36.377Z,3.86
2018-03-07T07:15:05.437Z,3.89
2018-03-07T07:17:36.069Z,3.90
2018-03-07T07:20:06.756Z,3.92
2018-03-07T07:22:39.634Z,3.93
2018-03-07T07:25:08.936Z,3.94
2018-03-07T07:27:40.649Z,3.97
2018-03-07T07:30:10.603Z,3.99
2018-03-07T07:32:41.199Z,4.01
2018-03-07T07:35:12.571Z,4.02
2018-03-07T07:37:42.439Z,4.03
2018-03-07T07:40:13.156Z,4.05
2018-03-07T07:42:44.464Z,4.07
2018-03-07T07:45:15.514Z,4.09
2018-03-07T07:47:46.563Z,4.11
2018-03-07T07:50:17.214Z,4.12
2018-03-07T07:52:48.172Z,4.16
2018-03-07T07:55:19.299Z,4.16
2018-03-07T07:57:49.664Z,4.18
2018-03-07T08:00:20.368Z,4.15
2018-03-07T08:02:50.716Z,4.20
2018-03-07T08:05:21.401Z,4.23
2018-03-07T08:07:52.064Z,4.27
2018-03-07T08:10:23.881Z,4.27
2018-03-07T08:12:55.473Z,4.25
2018-03-07T08:15:25.896Z,4.26
2018-03-07T08:17:55.639Z,4.24
2018-03-07T08:20:26.371Z,4.26
2018-03-07T08:22:57.099Z,4.24
2018-03-07T08:25:29.775Z,4.23
2018-03-07T08:27:59.907Z,4.22
2018-03-07T08:30:30.512Z,4.19
2018-03-07T08:33:01.135Z,4.20
2018-03-07T08:35:32.536Z,4.26
2018-03-07T08:38:03.161Z,4.17
2018-03-07T08:40:33.813Z,4.16
2018-03-07T08:43:05.409Z,4.23
2018-03-07T08:45:36.586Z,4.21
2018-03-07T08:48:07.237Z,4.19
2018-03-07T08:50:38.146Z,4.14
2018-03-07T08:53:08.708Z,4.15
2018-03-07T08:55:39.454Z,4.17
2018-03-07T08:58:09.714Z,4.19
2018-03-07T09:00:40.998Z,4.18
2018-03-07T09:03:11.423Z,4.12
2018-03-07T09:05:42.169Z,4.24
2018-03-07T09:08:13.028Z,4.16
2018-03-07T09:10:45.353Z,4.18
2018-03-07T09:13:15.611Z,4.22
2018-03-07T09:15:46.246Z,4.15
2018-03-07T09:18:17.173Z,4.15
2018-03-07T09:20:48.217Z,4.23
2018-03-07T09:23:19.051Z,4.18
2018-03-07T09:25:49.564Z,4.19
2018-03-07T09:28:20.151Z,4.18
2018-03-07T09:30:50.809Z,4.17
2018-03-07T09:33:21.431Z,4.21
2018-03-07T09:35:52.284Z,4.28
2018-03-07T09:38:23.952Z,4.28
2018-03-07T09:40:55.939Z,4.29
2018-03-07T09:43:25.814Z,4.34
2018-03-07T09:45:55.997Z,4.36
2018-03-07T09:48:26.651Z,4.38
2018-03-07T09:50:57.263Z,4.39
2018-03-07T09:53:28.121Z,4.41
2018-03-07T09:55:59.522Z,4.42
2018-03-07T09:58:31.118Z,4.45
2018-03-07T10:01:01.644Z,4.49
2018-03-07T10:03:32.412Z,4.50
2018-03-07T10:06:03.119Z,4.52
2018-03-07T10:08:34.675Z,4.53
2018-03-07T10:11:05.346Z,4.53
2018-03-07T10:13:36.082Z,4.53
2018-03-07T10:16:07.391Z,4.57
2018-03-07T10:18:37.795Z,4.55
2018-03-07T10:21:09.511Z,4.57
2018-03-07T10:23:39.595Z,4.57
2018-03-07T10:26:11.546Z,4.60
2018-03-07T10:28:47.023Z,4.62
2018-03-07T10:31:16.274Z,4.58
2018-03-07T10:33:45.576Z,4.60
2018-03-07T10:36:14.692Z,4.61
2018-03-07T10:38:45.270Z,4.64
2018-03-07T10:41:16.135Z,4.63
2018-03-07T10:43:47.380Z,4.62
2018-03-07T10:46:18.823Z,4.62
2018-03-07T10:48:48.686Z,4.63
2018-03-07T10:51:19.391Z,4.61
2018-03-07T10:53:50.312Z,4.59
2018-03-07T10:56:22.844Z,4.55
2018-03-07T10:58:52.700Z,4.52
2018-03-07T11:01:23.312Z,4.54
2018-03-07T11:03:54.103Z,4.57
2018-03-07T11:06:25.125Z,4.63
2018-03-07T11:08:55.634Z,4.62
2018-03-07T11:11:26.624Z,4.65
2018-03-07T11:13:57.595Z,4.67
2018-03-07T11:16:28.308Z,4.76
2018-03-07T11:18:58.734Z,4.81
2018-03-07T11:21:30.380Z,4.87
2018-03-07T11:24:00.387Z,4.96
2018-03-07T11:26:31.107Z,5.01
2018-03-07T11:29:02.447Z,5.05
2018-03-07T11:31:35.290Z,5.10
2018-03-07T11:34:04.720Z,5.16
2018-03-07T11:36:35.396Z,5.16
2018-03-07T11:39:06.739Z,5.23
2018-03-07T11:41:36.720Z,5.28
2018-03-07T11:44:07.358Z,5.35
2018-03-07T11:46:38.112Z,5.51
2018-03-07T11:49:09.146Z,5.74
2018-03-07T11:51:40.087Z,5.91
2018-03-07T11:54:10.716Z,5.98
2018-03-07T11:56:41.499Z,6.00
2018-03-07T11:59:12.464Z,6.27
2018-03-07T12:01:43.272Z,6.50
2018-03-07T12:04:14.050Z,6.63
2018-03-07T12:06:45.439Z,6.66
2018-03-07T12:09:16.035Z,6.97
2018-03-07T12:11:47.481Z,7.32
2018-03-07T12:14:18.182Z,7.47
2018-03-07T12:16:49.145Z,7.35
2018-03-07T12:19:20.422Z,7.28
2018-03-07T12:21:51.130Z,7.22
2018-03-07T12:24:22.156Z,7.23
2018-03-07T12:26:53.057Z,7.19
2018-03-07T12:29:24.612Z,7.15
2018-03-07T12:31:55.615Z,7.12
2018-03-07T12:34:28.795Z,7.26
2018-03-07T12:36:58.170Z,7.33
2018-03-07T12:39:28.729Z,7.30
2018-03-07T12:41:59.395Z,7.29
2018-03-07T12:44:31.056Z,7.22
2018-03-07T12:47:01.745Z,7.20
2018-03-07T12:49:32.460Z,7.19
2018-03-07T12:52:05.804Z,7.19
2018-03-07T12:54:35.017Z,7.04
2018-03-07T12:57:05.667Z,7.01
2018-03-07T12:59:36.316Z,6.97
2018-03-07T13:02:06.949Z,6.86
2018-03-07T13:04:38.415Z,6.79
2018-03-07T13:07:09.234Z,6.78
2018-03-07T13:09:40.092Z,6.80
2018-03-07T13:12:11.430Z,6.80
2018-03-07T13:14:41.309Z,6.86
2018-03-07T13:17:12.174Z,6.84
2018-03-07T13:19:43.076Z,6.82
2018-03-07T13:22:14.080Z,6.87
2018-03-07T13:24:45.411Z,6.85
2018-03-07T13:27:16.182Z,6.83
2018-03-07T13:29:47.819Z,6.88
2018-03-07T13:32:18.547Z,6.88
2018-03-07T13:34:50.427Z,6.80
2018-03-07T13:37:20.651Z,6.81
2018-03-07T13:39:51.208Z,6.78
2018-03-07T13:42:22.023Z,6.73
2018-03-07T13:44:53.618Z,6.74
2018-03-07T13:47:24.386Z,6.82
2018-03-07T13:49:55.127Z,6.78
2018-03-07T13:52:26.165Z,6.74
2018-03-07T13:54:57.481Z,6.74
2018-03-07T13:57:28.107Z,6.75
2018-03-07T13:59:59.398Z,6.73
2018-03-07T14:02:30.709Z,6.74
2018-03-07T14:05:00.670Z,6.79
2018-03-07T14:07:31.382Z,6.84
2018-03-07T14:10:03.289Z,6.90
2018-03-07T14:12:33.786Z,6.94
2018-03-07T14:15:04.576Z,6.92
2018-03-07T14:17:35.270Z,6.98
2018-03-07T14:20:06.130Z,6.91
2018-03-07T14:22:37.093Z,6.85
2018-03-07T14:25:08.158Z,6.85
2018-03-07T14:27:39.035Z,6.87
2018-03-07T14:30:10.420Z,6.91
2018-03-07T14:32:40.292Z,6.94
2018-03-07T14:35:11.417Z,6.97
2018-03-07T14:37:41.631Z,6.99
2018-03-07T14:40:12.445Z,7.01
2018-03-07T14:42:43.332Z,7.02
2018-03-07T14:45:14.193Z,7.04
2018-03-07T14:47:45.062Z,7.04
2018-03-07T14:50:16.035Z,7.07
2018-03-07T14:52:47.575Z,7.08
2018-03-07T14:55:18.314Z,7.07
2018-03-07T14:57:48.791Z,7.09
2018-03-07T15:00:19.439Z,7.08
2018-03-07T15:02:50.142Z,7.09
2018-03-07T15:05:20.800Z,7.12
2018-03-07T15:07:51.360Z,7.14
2018-03-07T15:10:22.136Z,7.16
2018-03-07T15:12:53.249Z,7.18
2018-03-07T15:15:24.136Z,7.20
2018-03-07T15:17:55.125Z,7.20
2018-03-07T15:20:28.640Z,7.24
2018-03-07T15:22:57.891Z,7.27
2018-03-07T15:25:28.736Z,7.29
2018-03-07T15:27:59.664Z,7.26
2018-03-07T15:30:30.406Z,7.28
2018-03-07T15:33:01.159Z,7.28
2018-03-07T15:35:32.560Z,7.27
2018-03-07T15:38:03.219Z,7.25
2018-03-07T15:40:34.381Z,7.25
2018-03-07T15:43:05.192Z,7.20
2018-03-07T15:45:36.178Z,7.16
2018-03-07T15:48:07.259Z,7.14
2018-03-07T15:50:38.196Z,7.12
2018-03-07T15:53:09.267Z,7.08
2018-03-07T15:55:40.154Z,7.09
2018-03-07T15:58:11.364Z,7.11
2018-03-07T16:00:42.111Z,7.08
2018-03-07T16:03:13.368Z,7.03
2018-03-07T16:05:44.240Z,7.03
2018-03-07T16:08:15.113Z,7.07
2018-03-07T16:10:46.535Z,7.00
2018-03-07T16:13:17.157Z,7.00
2018-03-07T16:15:48.515Z,6.99
2018-03-07T16:18:19.155Z,6.99
2018-03-07T16:20:50.518Z,6.97
2018-03-07T16:23:21.179Z,6.94
2018-03-07T16:25:52.190Z,6.93
2018-03-07T16:28:23.133Z,6.93
2018-03-07T16:30:54.252Z,6.90
2018-03-07T16:33:25.093Z,6.94
2018-03-07T16:35:56.086Z,6.94
2018-03-07T16:38:29.789Z,6.90
2018-03-07T16:40:59.081Z,6.91
2018-03-07T16:43:28.581Z,6.88
2018-03-07T16:45:59.283Z,6.88
2018-03-07T16:48:29.999Z,6.82
2018-03-07T16:51:01.473Z,6.80
2018-03-07T16:53:32.190Z,7.04
2018-03-07T16:56:02.900Z,8.29
2018-03-07T16:58:35.762Z,8.49
2018-03-07T17:01:06.417Z,8.24
2018-03-07T17:03:37.294Z,7.94
2018-03-07T17:06:08.995Z,7.73
2018-03-07T17:08:39.854Z,7.57
2018-03-07T17:11:09.834Z,7.37
2018-03-07T17:13:41.383Z,7.35
2018-03-07T17:16:11.736Z,7.24
2018-03-07T17:18:42.372Z,7.15
2018-03-07T17:21:13.320Z,7.04
2018-03-07T17:23:44.091Z,6.98
2018-03-07T17:26:15.437Z,6.91
2018-03-07T17:28:46.131Z,6.88
2018-03-07T17:31:17.738Z,6.84
2018-03-07T17:33:48.313Z,6.76
2018-03-07T17:36:19.071Z,6.72
2018-03-07T17:38:50.352Z,6.71
2018-03-07T17:41:20.774Z,6.70
2018-03-07T17:43:51.404Z,6.67
2018-03-07T17:46:22.239Z,6.65
2018-03-07T17:48:55.343Z,6.61
2018-03-07T17:51:25.572Z,6.60
2018-03-07T17:53:55.805Z,6.65
2018-03-07T17:56:27.316Z,6.61
2018-03-07T17:58:57.743Z,6.54
2018-03-07T18:01:28.086Z,6.54
2018-03-07T18:03:58.650Z,6.55
2018-03-07T18:06:29.307Z,6.58
2018-03-07T18:09:00.290Z,6.49
2018-03-07T18:11:31.116Z,6.56
2018-03-07T18:14:02.481Z,6.51
2018-03-07T18:16:33.384Z,6.57
2018-03-07T18:19:04.305Z,6.59
2018-03-07T18:21:35.105Z,6.55
2018-03-07T18:24:06.603Z,6.49
2018-03-07T18:26:37.303Z,6.47
2018-03-07T18:29:08.150Z,6.47
2018-03-07T18:31:38.858Z,6.46
2018-03-07T18:34:09.497Z,6.49
2018-03-07T18:36:39.468Z,6.52
2018-03-07T18:39:10.181Z,6.51
2018-03-07T18:41:41.176Z,6.52
2018-03-07T18:44:12.172Z,6.58
2018-03-07T18:46:44.007Z,6.55
2018-03-07T18:49:14.384Z,6.50
2018-03-07T18:51:45.110Z,6.55
2018-03-07T18:54:16.473Z,6.42
2018-03-07T18:56:48.523Z,6.44
2018-03-07T18:59:18.451Z,6.41
2018-03-07T19:01:49.217Z,6.39
2018-03-07T19:04:20.256Z,6.40
2018-03-07T19:06:50.816Z,6.36
2018-03-07T19:09:21.566Z,6.34
2018-03-07T19:11:52.315Z,6.35
2018-03-07T19:14:23.044Z,6.41
2018-03-07T19:16:54.533Z,6.32
2018-03-07T19:19:24.810Z,6.30
2018-03-07T19:21:55.472Z,6.27
2018-03-07T19:24:26.264Z,6.25
2018-03-07T19:26:57.953Z,6.26
2018-03-07T19:29:28.602Z,6.29
2018-03-07T19:32:00.077Z,6.25
2018-03-07T19:34:29.684Z,6.25
2018-03-07T19:37:00.410Z,6.19
2018-03-07T19:39:31.246Z,6.20
2018-03-07T19:42:02.309Z,6.18
2018-03-07T19:44:34.521Z,6.12
2018-03-07T19:47:04.984Z,6.23
2018-03-07T19:49:35.395Z,6.12
2018-03-07T19:52:06.184Z,6.04
2018-03-07T19:54:37.099Z,6.01
2018-03-07T19:57:07.680Z,5.93
2018-03-07T19:59:38.259Z,5.87
2018-03-07T20:02:09.268Z,5.92
2018-03-07T20:04:40.116Z,5.88
2018-03-07T20:07:10.600Z,5.83
2018-03-07T20:09:41.334Z,5.81
2018-03-07T20:12:12.320Z,5.81
2018-03-07T20:14:43.127Z,5.81
2018-03-07T20:17:14.212Z,5.78
2018-03-07T20:19:45.228Z,5.73
2018-03-07T20:22:16.105Z,5.72
2018-03-07T20:24:48.210Z,5.71
2018-03-07T20:27:18.842Z,5.72
2018-03-07T20:29:49.422Z,5.81
2018-03-07T20:32:20.951Z,5.83
2018-03-07T20:34:51.939Z,5.80
2018-03-07T20:37:22.765Z,5.80
2018-03-07T20:39:53.332Z,5.70
2018-03-07T20:42:24.464Z,5.66
2018-03-07T20:44:54.976Z,5.72
2018-03-07T20:47:25.837Z,5.64
2018-03-07T20:49:56.407Z,5.61
2018-03-07T20:52:27.304Z,5.63
2018-03-07T20:54:58.618Z,5.63
2018-03-07T20:57:29.268Z,5.63
2018-03-07T21:00:00.958Z,5.64
2018-03-07T21:02:31.341Z,5.60
2018-03-07T21:05:01.756Z,5.66
2018-03-07T21:07:32.533Z,5.63
2018-03-07T21:10:03.256Z,5.62
2018-03-07T21:12:34.186Z,5.61
2018-03-07T21:15:04.408Z,5.62
2018-03-07T21:17:35.089Z,5.66
2018-03-07T21:20:08.772Z,5.62
2018-03-07T21:22:37.947Z,5.58
2018-03-07T21:25:08.379Z,5.63
2018-03-07T21:27:39.054Z,5.69
2018-03-07T21:30:09.396Z,5.73
2018-03-07T21:32:40.105Z,5.71
2018-03-07T21:35:11.112Z,5.73
2018-03-07T21:37:42.498Z,5.77
2018-03-07T21:40:13.787Z,5.66
2018-03-07T21:42:44.437Z,5.70
2018-03-07T21:45:15.080Z,5.69
2018-03-07T21:47:46.386Z,5.82
2018-03-07T21:50:17.089Z,5.80
2018-03-07T21:52:47.763Z,5.80
2018-03-07T21:55:18.328Z,5.73
2018-03-07T21:57:49.078Z,5.75
2018-03-07T22:00:19.680Z,5.82
2018-03-07T22:02:50.276Z,5.78
2018-03-07T22:05:21.085Z,5.79
2018-03-07T22:07:52.083Z,5.84
2018-03-07T22:10:23.348Z,5.91
2018-03-07T22:12:54.175Z,5.87
2018-03-07T22:15:25.086Z,5.85
2018-03-07T22:17:56.452Z,5.83
2018-03-07T22:20:27.014Z,5.83
2018-03-07T22:22:58.466Z,5.87
2018-03-07T22:25:29.085Z,6.01
2018-03-07T22:28:00.024Z,6.01
2018-03-07T22:30:31.225Z,6.01
2018-03-07T22:33:02.956Z,5.99
2018-03-07T22:35:33.428Z,6.02
2018-03-07T22:38:04.111Z,6.02
2018-03-07T22:40:35.055Z,6.05
2018-03-07T22:43:06.360Z,6.08
2018-03-07T22:45:37.033Z,6.06
2018-03-07T22:48:08.722Z,6.05
2018-03-07T22:50:38.584Z,6.09
2018-03-07T22:53:09.462Z,6.14
2018-03-07T22:55:39.964Z,6.16
2018-03-07T22:58:11.437Z,6.08
2018-03-07T23:00:48.770Z,6.08
2018-03-07T23:03:17.959Z,6.10
2018-03-07T23:05:47.093Z,6.07
2018-03-07T23:08:16.242Z,6.11
2018-03-07T23:10:47.815Z,6.12
2018-03-07T23:13:17.673Z,6.10
2018-03-07T23:15:48.300Z,6.17
2018-03-07T23:18:19.118Z,6.16
2018-03-07T23:20:50.111Z,6.11
2018-03-07T23:23:21.376Z,6.11
2018-03-07T23:25:51.648Z,6.11
2018-03-07T23:28:22.186Z,6.11
2018-03-07T23:30:53.131Z,6.11
2018-03-07T23:33:24.486Z,6.11
2018-03-07T23:35:56.586Z,6.07
2018-03-07T23:38:26.401Z,6.06
2018-03-07T23:40:57.346Z,6.07
2018-03-07T23:43:28.113Z,6.17
2018-03-07T23:45:59.089Z,6.04
2018-03-07T23:48:30.383Z,6.05
2018-03-07T23:51:01.487Z,5.98
2018-03-07T23:53:32.085Z,5.98
2018-03-07T23:56:03.856Z,5.95
2018-03-07T23:58:33.685Z,5.92
